sensor_id;sensor_type;location;lat;lon;timestamp;pressure;altitude;pressure_sealevel;temperature
65765;BMP180;52915;53.718;19.946;2022-11-20T00:00:39;100013.60;;;-2.30
65765;BMP180;52915;53.718;19.946;2022-11-20T00:06:06;100010.80;;;-2.34
65765;BMP180;52915;53.718;19.946;2022-11-20T00:11:16;100009.60;;;-2.30
65765;BMP180;52915;53.718;19.946;2022-11-20T00:16:24;100010.60;;;-2.40
65765;BMP180;52915;53.718;19.946;2022-11-20T00:21:29;100008.40;;;-2.40
65765;BMP180;52915;53.718;19.946;2022-11-20T00:26:35;100004.00;;;-2.40
65765;BMP180;52915;53.718;19.946;2022-11-20T00:31:39;100005.60;;;-2.40
65765;BMP180;52915;53.718;19.946;2022-11-20T00:36:45;100000.20;;;-2.50
65765;BMP180;52915;53.718;19.946;2022-11-20T00:41:49;100000.40;;;-2.40
65765;BMP180;52915;53.718;19.946;2022-11-20T00:46:53;100004.80;;;-2.50
65765;BMP180;52915;53.718;19.946;2022-11-20T00:51:57;100004.60;;;-2.40
65765;BMP180;52915;53.718;19.946;2022-11-20T00:57:01;100001.40;;;-2.40
65765;BMP180;52915;53.718;19.946;2022-11-20T01:02:05;99998.80;;;-2.40
65765;BMP180;52915;53.718;19.946;2022-11-20T01:07:10;100004.20;;;-2.30
65765;BMP180;52915;53.718;19.946;2022-11-20T01:12:14;100001.20;;;-2.30
65765;BMP180;52915;53.718;19.946;2022-11-20T01:17:18;100003.40;;;-2.40
65765;BMP180;52915;53.718;19.946;2022-11-20T01:22:22;100003.60;;;-2.20
65765;BMP180;52915;53.718;19.946;2022-11-20T01:27:26;100000.20;;;-2.00
65765;BMP180;52915;53.718;19.946;2022-11-20T01:32:30;99998.60;;;-2.10
65765;BMP180;52915;53.718;19.946;2022-11-20T01:37:34;99991.60;;;-2.20
65765;BMP180;52915;53.718;19.946;2022-11-20T01:42:53;99997.80;;;-1.94
65765;BMP180;52915;53.718;19.946;2022-11-20T01:48:24;99996.20;;;-1.90
65765;BMP180;52915;53.718;19.946;2022-11-20T01:53:34;99997.80;;;-2.06
65765;BMP180;52915;53.718;19.946;2022-11-20T01:58:48;99996.20;;;-1.94
65765;BMP180;52915;53.718;19.946;2022-11-20T02:03:54;99992.00;;;-2.06
65765;BMP180;52915;53.718;19.946;2022-11-20T02:08:58;99993.00;;;-2.20
65765;BMP180;52915;53.718;19.946;2022-11-20T02:14:03;99997.00;;;-2.10
65765;BMP180;52915;53.718;19.946;2022-11-20T02:19:30;99987.60;;;-2.20
65765;BMP180;52915;53.718;19.946;2022-11-20T02:24:36;99980.20;;;-2.10
65765;BMP180;52915;53.718;19.946;2022-11-20T02:40:24;99973.40;;;-2.00
65765;BMP180;52915;53.718;19.946;2022-11-20T02:45:28;99977.40;;;-2.10
65765;BMP180;52915;53.718;19.946;2022-11-20T02:50:32;99976.40;;;-2.00
65765;BMP180;52915;53.718;19.946;2022-11-20T02:55:37;99971.40;;;-2.08
65765;BMP180;52915;53.718;19.946;2022-11-20T03:00:41;99970.40;;;-2.00
65765;BMP180;52915;53.718;19.946;2022-11-20T03:05:45;99967.20;;;-2.10
65765;BMP180;52915;53.718;19.946;2022-11-20T03:10:49;99971.20;;;-2.08
65765;BMP180;52915;53.718;19.946;2022-11-20T03:15:53;99969.80;;;-2.02
65765;BMP180;52915;53.718;19.946;2022-11-20T03:20:58;99967.60;;;-2.10
65765;BMP180;52915;53.718;19.946;2022-11-20T03:26:21;99971.20;;;-1.90
65765;BMP180;52915;53.718;19.946;2022-11-20T03:31:38;99958.40;;;-2.00
65765;BMP180;52915;53.718;19.946;2022-11-20T03:36:45;99962.20;;;-2.10
65765;BMP180;52915;53.718;19.946;2022-11-20T03:41:49;99956.00;;;-2.00
65765;BMP180;52915;53.718;19.946;2022-11-20T03:46:53;99954.00;;;-2.00
65765;BMP180;52915;53.718;19.946;2022-11-20T03:51:57;99950.40;;;-2.10
65765;BMP180;52915;53.718;19.946;2022-11-20T03:57:01;99947.60;;;-2.10
65765;BMP180;52915;53.718;19.946;2022-11-20T04:02:06;99946.60;;;-2.10
65765;BMP180;52915;53.718;19.946;2022-11-20T04:07:11;99951.40;;;-2.12
65765;BMP180;52915;53.718;19.946;2022-11-20T04:12:16;99949.20;;;-2.10
65765;BMP180;52915;53.718;19.946;2022-11-20T04:17:20;99945.80;;;-2.20
65765;BMP180;52915;53.718;19.946;2022-11-20T04:22:24;99942.40;;;-2.10
65765;BMP180;52915;53.718;19.946;2022-11-20T04:27:30;99938.60;;;-2.20
65765;BMP180;52915;53.718;19.946;2022-11-20T04:32:34;99936.40;;;-2.10
65765;BMP180;52915;53.718;19.946;2022-11-20T04:37:39;99934.40;;;-2.20
65765;BMP180;52915;53.718;19.946;2022-11-20T04:42:43;99934.60;;;-2.10
65765;BMP180;52915;53.718;19.946;2022-11-20T04:47:48;99939.40;;;-2.10
65765;BMP180;52915;53.718;19.946;2022-11-20T04:52:51;99939.80;;;-2.20
65765;BMP180;52915;53.718;19.946;2022-11-20T04:57:56;99936.80;;;-2.00
65765;BMP180;52915;53.718;19.946;2022-11-20T05:03:04;99925.60;;;-1.90
65765;BMP180;52915;53.718;19.946;2022-11-20T05:08:08;99929.60;;;-2.08
65765;BMP180;52915;53.718;19.946;2022-11-20T05:13:13;99929.00;;;-2.00
65765;BMP180;52915;53.718;19.946;2022-11-20T05:18:17;99923.20;;;-2.10
65765;BMP180;52915;53.718;19.946;2022-11-20T05:23:21;99921.60;;;-2.00
65765;BMP180;52915;53.718;19.946;2022-11-20T05:28:29;99913.00;;;-2.10
65765;BMP180;52915;53.718;19.946;2022-11-20T05:33:37;99905.80;;;-2.10
65765;BMP180;52915;53.718;19.946;2022-11-20T05:38:44;99905.00;;;-2.20
65765;BMP180;52915;53.718;19.946;2022-11-20T05:43:53;99915.20;;;-2.20
65765;BMP180;52915;53.718;19.946;2022-11-20T05:48:58;99911.20;;;-2.04
65765;BMP180;52915;53.718;19.946;2022-11-20T05:54:02;99910.80;;;-2.10
65765;BMP180;52915;53.718;19.946;2022-11-20T05:59:06;99910.80;;;-2.02
65765;BMP180;52915;53.718;19.946;2022-11-20T06:04:10;99905.60;;;-2.06
65765;BMP180;52915;53.718;19.946;2022-11-20T06:09:15;99904.00;;;-2.10
65765;BMP180;52915;53.718;19.946;2022-11-20T06:14:19;99897.80;;;-2.10
65765;BMP180;52915;53.718;19.946;2022-11-20T06:19:24;99897.80;;;-2.10
65765;BMP180;52915;53.718;19.946;2022-11-20T06:24:27;99894.20;;;-2.00
65765;BMP180;52915;53.718;19.946;2022-11-20T06:29:33;99894.80;;;-2.10
65765;BMP180;52915;53.718;19.946;2022-11-20T06:34:36;99892.40;;;-2.02
65765;BMP180;52915;53.718;19.946;2022-11-20T06:39:40;99886.80;;;-2.10
65765;BMP180;52915;53.718;19.946;2022-11-20T06:44:45;99890.80;;;-2.12
65765;BMP180;52915;53.718;19.946;2022-11-20T06:49:50;99895.40;;;-2.10
65765;BMP180;52915;53.718;19.946;2022-11-20T06:54:54;99886.60;;;-2.10
65765;BMP180;52915;53.718;19.946;2022-11-20T06:59:58;99883.60;;;-2.10
65765;BMP180;52915;53.718;19.946;2022-11-20T07:05:03;99874.80;;;-2.00
65765;BMP180;52915;53.718;19.946;2022-11-20T07:10:09;99888.00;;;-1.80
65765;BMP180;52915;53.718;19.946;2022-11-20T07:15:14;99887.40;;;-1.80
65765;BMP180;52915;53.718;19.946;2022-11-20T07:20:19;99877.20;;;-1.90
65765;BMP180;52915;53.718;19.946;2022-11-20T07:25:26;99872.80;;;-1.80
65765;BMP180;52915;53.718;19.946;2022-11-20T07:30:31;99874.80;;;-1.90
65765;BMP180;52915;53.718;19.946;2022-11-20T07:42:02;99874.20;;;-1.80
65765;BMP180;52915;53.718;19.946;2022-11-20T07:47:35;99868.80;;;-1.64
65765;BMP180;52915;53.718;19.946;2022-11-20T07:52:40;99873.00;;;-1.70
65765;BMP180;52915;53.718;19.946;2022-11-20T07:57:45;99864.60;;;-1.50
65765;BMP180;52915;53.718;19.946;2022-11-20T08:03:04;99870.60;;;-1.50
65765;BMP180;52915;53.718;19.946;2022-11-20T08:08:11;99872.40;;;-1.34
65765;BMP180;52915;53.718;19.946;2022-11-20T08:13:17;99864.00;;;-1.40
65765;BMP180;52915;53.718;19.946;2022-11-20T08:18:41;99869.00;;;-1.30
65765;BMP180;52915;53.718;19.946;2022-11-20T08:23:46;99866.60;;;-1.30
65765;BMP180;52915;53.718;19.946;2022-11-20T08:28:55;99863.20;;;-1.20
65765;BMP180;52915;53.718;19.946;2022-11-20T08:34:00;99856.20;;;-1.20
65765;BMP180;52915;53.718;19.946;2022-11-20T08:39:13;99850.20;;;-0.84
65765;BMP180;52915;53.718;19.946;2022-11-20T08:44:17;99841.40;;;-0.78
65765;BMP180;52915;53.718;19.946;2022-11-20T08:49:23;99835.20;;;-0.64
65765;BMP180;52915;53.718;19.946;2022-11-20T08:54:30;99826.80;;;-0.60
65765;BMP180;52915;53.718;19.946;2022-11-20T08:59:34;99829.00;;;-0.38
65765;BMP180;52915;53.718;19.946;2022-11-20T09:05:00;99821.60;;;-0.20
65765;BMP180;52915;53.718;19.946;2022-11-20T09:17:34;99821.20;;;0.20
65765;BMP180;52915;53.718;19.946;2022-11-20T09:22:40;99820.40;;;0.20
65765;BMP180;52915;53.718;19.946;2022-11-20T09:28:34;99798.00;;;1.28
65765;BMP180;52915;53.718;19.946;2022-11-20T09:33:38;99810.60;;;1.30
65765;BMP180;52915;53.718;19.946;2022-11-20T09:39:07;99814.20;;;1.40
65765;BMP180;52915;53.718;19.946;2022-11-20T09:44:48;99813.60;;;1.38
65765;BMP180;52915;53.718;19.946;2022-11-20T09:50:47;99786.00;;;3.18
65765;BMP180;52915;53.718;19.946;2022-11-20T09:55:55;99807.00;;;2.76
65765;BMP180;52915;53.718;19.946;2022-11-20T10:01:16;99812.40;;;1.60
65765;BMP180;52915;53.718;19.946;2022-11-20T10:07:00;99806.20;;;1.20
65765;BMP180;52915;53.718;19.946;2022-11-20T10:12:57;99798.60;;;1.10
65765;BMP180;52915;53.718;19.946;2022-11-20T10:25:55;99806.00;;;1.20
65765;BMP180;52915;53.718;19.946;2022-11-20T10:31:32;99801.40;;;0.70
65765;BMP180;52915;53.718;19.946;2022-11-20T10:36:59;99785.20;;;0.60
65765;BMP180;52915;53.718;19.946;2022-11-20T10:42:35;99793.60;;;0.50
65765;BMP180;52915;53.718;19.946;2022-11-20T10:47:41;99787.20;;;0.70
65765;BMP180;52915;53.718;19.946;2022-11-20T10:53:09;99787.20;;;0.60
65765;BMP180;52915;53.718;19.946;2022-11-20T11:05:44;99783.40;;;0.20
65765;BMP180;52915;53.718;19.946;2022-11-20T11:11:39;99785.60;;;0.10
65765;BMP180;52915;53.718;19.946;2022-11-20T11:16:56;99785.60;;;0.06
65765;BMP180;52915;53.718;19.946;2022-11-20T11:22:06;99788.20;;;0.10
65765;BMP180;52915;53.718;19.946;2022-11-20T11:27:15;99781.20;;;0.10
65765;BMP180;52915;53.718;19.946;2022-11-20T11:32:21;99784.60;;;0.10
65765;BMP180;52915;53.718;19.946;2022-11-20T11:37:37;99783.60;;;0.00
65765;BMP180;52915;53.718;19.946;2022-11-20T11:43:02;99781.20;;;0.00
65765;BMP180;52915;53.718;19.946;2022-11-20T11:48:35;99775.00;;;0.00
65765;BMP180;52915;53.718;19.946;2022-11-20T11:53:42;99775.20;;;-0.02
65765;BMP180;52915;53.718;19.946;2022-11-20T12:39:42;99731.80;;;0.40
65765;BMP180;52915;53.718;19.946;2022-11-20T12:58:36;99721.80;;;0.10
65765;BMP180;52915;53.718;19.946;2022-11-20T13:09:33;99715.80;;;0.20
65765;BMP180;52915;53.718;19.946;2022-11-20T13:15:36;99705.20;;;0.20
65765;BMP180;52915;53.718;19.946;2022-11-20T13:20:45;99693.20;;;0.10
65765;BMP180;52915;53.718;19.946;2022-11-20T13:25:50;99681.40;;;0.20
65765;BMP180;52915;53.718;19.946;2022-11-20T13:30:58;99676.40;;;0.12
65765;BMP180;52915;53.718;19.946;2022-11-20T13:36:26;99678.00;;;0.10
65765;BMP180;52915;53.718;19.946;2022-11-20T14:01:16;99665.40;;;0.10
65765;BMP180;52915;53.718;19.946;2022-11-20T14:13:26;99652.20;;;0.08
65765;BMP180;52915;53.718;19.946;2022-11-20T14:18:30;99648.60;;;0.00
65765;BMP180;52915;53.718;19.946;2022-11-20T14:39:04;99634.40;;;-0.10
65765;BMP180;52915;53.718;19.946;2022-11-20T14:44:10;99631.60;;;-0.10
65765;BMP180;52915;53.718;19.946;2022-11-20T14:59:34;99617.20;;;-0.02
65765;BMP180;52915;53.718;19.946;2022-11-20T15:12:17;99611.00;;;0.00
65765;BMP180;52915;53.718;19.946;2022-11-20T15:17:43;99607.20;;;0.18
65765;BMP180;52915;53.718;19.946;2022-11-20T15:22:49;99608.00;;;0.00
65765;BMP180;52915;53.718;19.946;2022-11-20T15:28:02;99602.60;;;0.10
65765;BMP180;52915;53.718;19.946;2022-11-20T15:33:10;99589.20;;;0.00
65765;BMP180;52915;53.718;19.946;2022-11-20T15:38:39;99591.00;;;-0.04
65765;BMP180;52915;53.718;19.946;2022-11-20T15:43:46;99589.20;;;0.00
65765;BMP180;52915;53.718;19.946;2022-11-20T15:48:54;99587.80;;;0.00
65765;BMP180;52915;53.718;19.946;2022-11-20T15:54:25;99587.20;;;0.10
65765;BMP180;52915;53.718;19.946;2022-11-20T15:59:31;99578.80;;;0.10
65765;BMP180;52915;53.718;19.946;2022-11-20T16:12:46;99567.20;;;0.10
65765;BMP180;52915;53.718;19.946;2022-11-20T16:18:47;99573.40;;;0.28
65765;BMP180;52915;53.718;19.946;2022-11-20T16:24:04;99564.40;;;0.26
65765;BMP180;52915;53.718;19.946;2022-11-20T16:29:26;99566.40;;;0.20
65765;BMP180;52915;53.718;19.946;2022-11-20T16:35:25;99557.20;;;0.22
65765;BMP180;52915;53.718;19.946;2022-11-20T16:47:47;99558.80;;;0.26
65765;BMP180;52915;53.718;19.946;2022-11-20T17:08:48;99553.80;;;0.30
65765;BMP180;52915;53.718;19.946;2022-11-20T17:14:22;99560.60;;;0.28
65765;BMP180;52915;53.718;19.946;2022-11-20T17:19:26;99560.20;;;0.38
65765;BMP180;52915;53.718;19.946;2022-11-20T17:24:30;99555.60;;;0.20
65765;BMP180;52915;53.718;19.946;2022-11-20T17:29:34;99553.80;;;0.20
65765;BMP180;52915;53.718;19.946;2022-11-20T17:34:44;99552.20;;;0.20
65765;BMP180;52915;53.718;19.946;2022-11-20T17:53:23;99554.20;;;0.10
65765;BMP180;52915;53.718;19.946;2022-11-20T17:59:19;99553.00;;;0.00
65765;BMP180;52915;53.718;19.946;2022-11-20T18:10:49;99549.40;;;-0.04
65765;BMP180;52915;53.718;19.946;2022-11-20T18:26:32;99533.00;;;-0.14
65765;BMP180;52915;53.718;19.946;2022-11-20T18:42:27;99523.60;;;-0.18
65765;BMP180;52915;53.718;19.946;2022-11-20T19:02:44;99521.20;;;-0.10
65765;BMP180;52915;53.718;19.946;2022-11-20T19:07:47;99513.40;;;-0.10
65765;BMP180;52915;53.718;19.946;2022-11-20T19:12:53;99515.20;;;-0.20
65765;BMP180;52915;53.718;19.946;2022-11-20T19:41:57;99508.80;;;-0.16
65765;BMP180;52915;53.718;19.946;2022-11-20T19:46:59;99504.80;;;-0.20
65765;BMP180;52915;53.718;19.946;2022-11-20T19:52:54;99500.60;;;-0.30
65765;BMP180;52915;53.718;19.946;2022-11-20T19:58:01;99503.80;;;-0.20
65765;BMP180;52915;53.718;19.946;2022-11-20T20:34:32;99501.80;;;-0.28
65765;BMP180;52915;53.718;19.946;2022-11-20T20:39:36;99502.60;;;-0.30
65765;BMP180;52915;53.718;19.946;2022-11-20T20:44:40;99504.80;;;-0.20
65765;BMP180;52915;53.718;19.946;2022-11-20T20:50:07;99503.60;;;-0.30
65765;BMP180;52915;53.718;19.946;2022-11-20T20:55:11;99506.20;;;-0.22
65765;BMP180;52915;53.718;19.946;2022-11-20T21:00:15;99511.60;;;-0.20
65765;BMP180;52915;53.718;19.946;2022-11-20T21:05:19;99508.20;;;-0.20
65765;BMP180;52915;53.718;19.946;2022-11-20T21:10:23;99511.40;;;-0.30
65765;BMP180;52915;53.718;19.946;2022-11-20T21:15:27;99513.00;;;-0.22
65765;BMP180;52915;53.718;19.946;2022-11-20T21:20:31;99513.00;;;-0.28
65765;BMP180;52915;53.718;19.946;2022-11-20T21:25:54;99515.20;;;-0.40
65765;BMP180;52915;53.718;19.946;2022-11-20T21:31:09;99508.80;;;-0.30
65765;BMP180;52915;53.718;19.946;2022-11-20T21:36:22;99508.80;;;-0.30
65765;BMP180;52915;53.718;19.946;2022-11-20T21:41:29;99501.80;;;-0.30
65765;BMP180;52915;53.718;19.946;2022-11-20T21:46:42;99498.20;;;-0.30
65765;BMP180;52915;53.718;19.946;2022-11-20T21:52:13;99491.80;;;-0.30
65765;BMP180;52915;53.718;19.946;2022-11-20T22:04:11;99489.40;;;-0.30
65765;BMP180;52915;53.718;19.946;2022-11-20T22:10:09;99481.40;;;-0.30
65765;BMP180;52915;53.718;19.946;2022-11-20T22:15:20;99485.20;;;-0.40
65765;BMP180;52915;53.718;19.946;2022-11-20T22:27:48;99483.60;;;-0.42
65765;BMP180;52915;53.718;19.946;2022-11-20T22:41:24;99470.20;;;-0.50
65765;BMP180;52915;53.718;19.946;2022-11-20T22:53:52;99457.00;;;-0.60
65765;BMP180;52915;53.718;19.946;2022-11-20T22:59:09;99455.20;;;-0.68
65765;BMP180;52915;53.718;19.946;2022-11-20T23:04:13;99454.40;;;-0.80
65765;BMP180;52915;53.718;19.946;2022-11-20T23:16:14;99457.80;;;-0.88
65765;BMP180;52915;53.718;19.946;2022-11-20T23:36:35;99460.20;;;-1.12
65765;BMP180;52915;53.718;19.946;2022-11-20T23:41:39;99465.20;;;-1.00
65765;BMP180;52915;53.718;19.946;2022-11-20T23:46:49;99451.20;;;-1.10
